Home > Products > Valid Products > TAF

000
FTUS41 KBGM 030200 AAA
TAFELM
TAF AMD
KELM 030212Z 0302/0324 31010G17KT P6SM SCT035
     FM030300 VRB03KT P6SM FEW035
     FM031500 16007KT P6SM OVC120
     FM031800 18008KT 2SM -SN OVC015
     FM032200 18010KT 4SM -FZRA OVC015=



000
FTUS41 KBGM 030200 AAA
TAFAVP
TAF AMD
KAVP 030212Z 0302/0324 32012G20KT P6SM SKC
     FM030400 VRB03KT P6SM SKC
     FM031400 18005KT P6SM OVC120
     FM031800 20008KT 2SM -SN OVC015=



000
FTUS41 KBGM 030200 AAA
TAFELM
TAF AMD
KELM 030212Z 0302/0324 31010G17KT P6SM SCT035
     FM030300 VRB03KT P6SM FEW035
     FM031500 16007KT P6SM OVC120
     FM031800 18008KT 2SM -SN OVC015
     FM032200 18010KT 4SM -FZRA OVC015=



000
FTUS41 KBGM 022300
TAFAVP
TAF
KAVP 022320Z 0300/0324 32010KT P6SM SKC
     FM030300 VRB03KT P6SM SKC
     FM031400 18005KT P6SM OVC120
     FM031800 20008KT 2SM -SN OVC015=



000
FTUS41 KBGM 022300
TAFBGM
TAF
KBGM 022320Z 0300/0324 31010KT P6SM SKC
     FM030300 VRB03KT P6SM SKC
     FM031400 17010KT P6SM OVC120
     FM031900 18008KT 2SM -SN OVC015=



000
FTUS41 KBGM 022300
TAFITH
TAF
KITH 022320Z 0300/0324 31015KT P6SM OVC040
     FM030200 VRB03KT P6SM SKC
     FM031500 16008KT P6SM OVC120
     FM031900 18008KT 2SM -SN OVC015=



000
FTUS41 KBGM 022300
TAFELM
TAF
KELM 022320Z 0300/0324 30015KT P6SM SKC
     FM030200 VRB03KT P6SM SKC
     FM031500 16007KT P6SM OVC120
     FM031800 18008KT 2SM -SN OVC015
     FM032200 18010KT 4SM -FZRA OVC015=



000
FTUS41 KBGM 022300
TAFBGM
TAF
KBGM 022320Z 0300/0324 31010KT P6SM SKC
     FM030300 VRB03KT P6SM SKC
     FM031400 17010KT P6SM OVC120
     FM031900 18008KT 2SM -SN OVC015=



000
FTUS41 KBGM 022300
TAFSYR
TAF
KSYR 022320Z 0300/0324 29015KT P6SM OVC040
      TEMPO 0300/0301 5SM -SN BLSN
     FM030300 26005KT P6SM SKC
     FM031500 13007KT P6SM OVC120
     FM032100 18008KT 2SM -SN OVC015=



000
FTUS41 KBGM 022300
TAFELM
TAF
KELM 022320Z 0300/0324 30015KT P6SM SKC
     FM030200 VRB03KT P6SM SKC
     FM031500 16007KT P6SM OVC120
     FM031800 18008KT 2SM -SN OVC015
     FM032200 18010KT 4SM -FZRA OVC015=



000
FTUS41 KBGM 022300
TAFAVP
TAF
KAVP 022320Z 0300/0324 32010KT P6SM SKC
     FM030300 VRB03KT P6SM SKC
     FM031400 18005KT P6SM OVC120
     FM031800 20008KT 2SM -SN OVC015=



000
FTUS41 KBGM 022300
TAFSYR
TAF
KSYR 022320Z 0300/0324 29015KT P6SM OVC040
      TEMPO 0300/0301 5SM -SN BLSN
     FM030300 26005KT P6SM SKC
     FM031500 13007KT P6SM OVC120
     FM032100 18008KT 2SM -SN OVC015=



000
FTUS41 KBGM 022300
TAFITH
TAF
KITH 022320Z 0300/0324 31015KT P6SM OVC040
     FM030200 VRB03KT P6SM SKC
     FM031500 16008KT P6SM OVC120
     FM031900 18008KT 2SM -SN OVC015=



000
FTUS41 KBGM 022000 AAA
TAFBGM
TAF AMD
KBGM 022040Z 0221/0318 30015G25KT P6SM BKN035
     FM030000 31010KT P6SM BKN035
     FM030400 VRB03KT P6SM SKC
     FM031200 15007KT P6SM OVC100=



000
FTUS41 KBGM 022000 AAA
TAFBGM
TAF AMD
KBGM 022040Z 0221/0318 30015G25KT P6SM BKN035
     FM030000 31010KT P6SM BKN035
     FM030400 VRB03KT P6SM SKC
     FM031200 15007KT P6SM OVC100=



000
FTUS41 KBGM 021700 RRA
TAFBGM
TAF
KBGM 021741Z 0218/0318 30015G25KT P6SM -SHSN BKN025 BKN035
     FM030000 31010KT P6SM BKN035
     FM030400 VRB03KT P6SM SKC
     FM031200 15007KT P6SM OVC100=



000
FTUS41 KBGM 021700 RRA
TAFSYR
TAF
KSYR 021741Z 0218/0318 29015G25KT 4SM -SHSN BKN025 OVC035
      TEMPO 0218/0220 2SM -SHSN
     FM022100 29012G22KT P6SM -SHSN SCT025 BKN035
     FM030000 28010KT P6SM -SHSN BKN035
     FM030300 VRB03KT P6SM SCT035
     FM031500 15007KT P6SM OVC120=



000
FTUS41 KBGM 021700 RRA
TAFAVP
TAF
KAVP 021741Z 0218/0318 32015G25KT P6SM BKN045
     FM030000 30010KT P6SM SCT040
     FM030600 VRB03KT P6SM SKC
     FM031400 VRB03KT P6SM OVC120=



000
FTUS41 KBGM 021700 RRA
TAFELM
TAF
KELM 021741Z 0218/0318 29012G22KT P6SM BKN040
     FM030000 29008KT P6SM BKN040
     FM030300 VRB03KT P6SM SKC
     FM031200 VRB03KT P6SM OVC120=



000
FTUS41 KBGM 021700 RRA
TAFITH
TAF
KITH 021741Z 0218/0318 30015G25KT P6SM -SHSN BKN025
     FM030000 30010KT P6SM BKN035
     FM030400 VRB03KT P6SM SKC
     FM031200 15007KT P6SM OVC100=



000
FTUS41 KBGM 021700 RRA
TAFSYR
TAF
KSYR 021741Z 0218/0318 29015G25KT 4SM -SHSN BKN025 OVC035
      TEMPO 0218/0220 2SM -SHSN
     FM022100 29012G22KT P6SM -SHSN SCT025 BKN035
     FM030000 28010KT P6SM -SHSN BKN035
     FM030300 VRB03KT P6SM SCT035
     FM031500 15007KT P6SM OVC120=



000
FTUS41 KBGM 021700 RRA
TAFBGM
TAF
KBGM 021741Z 0218/0318 30015G25KT P6SM -SHSN BKN025 BKN035
     FM030000 31010KT P6SM BKN035
     FM030400 VRB03KT P6SM SKC
     FM031200 15007KT P6SM OVC100=



000
FTUS41 KBGM 021700 RRA
TAFELM
TAF
KELM 021741Z 0218/0318 29012G22KT P6SM BKN040
     FM030000 29008KT P6SM BKN040
     FM030300 VRB03KT P6SM SKC
     FM031200 VRB03KT P6SM OVC120=



000
FTUS41 KBGM 021700 RRA
TAFAVP
TAF
KAVP 021741Z 0218/0318 32015G25KT P6SM BKN045
     FM030000 30010KT P6SM SCT040
     FM030600 VRB03KT P6SM SKC
     FM031400 VRB03KT P6SM OVC120=



000
FTUS41 KBGM 021700 RRA
TAFITH
TAF
KITH 021741Z 0218/0318 30015G25KT P6SM -SHSN BKN025
     FM030000 30010KT P6SM BKN035
     FM030400 VRB03KT P6SM SKC
     FM031200 15007KT P6SM OVC100=



000
FTUS41 KBGM 021400 AAA
TAFELM
TAF AMD
KELM 021434Z 0215/0312 29015G25KT P6SM -SHSN SCT025 BKN035
     FM030000 30010KT P6SM BKN040
     FM030300 VRB03KT P6SM SKC=



000
FTUS41 KBGM 021400 AAA
TAFELM
TAF AMD
KELM 021434Z 0215/0312 29015G25KT P6SM -SHSN SCT025 BKN035
     FM030000 30010KT P6SM BKN040
     FM030300 VRB03KT P6SM SKC=



000
FTUS41 KBGM 021100
TAFITH
TAF
KITH 021140Z 0212/0312 31011KT P6SM OVC025
     FM021400 30015G25KT P6SM -SHSN BKN025 OVC035
     FM030000 30010KT P6SM BKN040
     FM030300 31005KT P6SM SKC
     FM030900 12003KT P6SM OVC150=



000
FTUS41 KBGM 021100
TAFBGM
TAF
KBGM 021140Z 0212/0312 28007KT 4SM BR SCT009 OVC015
      TEMPO 0212/0213 2SM -SN
     FM021400 30010G20KT P6SM -SHSN BKN025 OVC035
     FM030000 30011KT P6SM BKN040
     FM030300 30004KT P6SM SKC=



000
FTUS41 KBGM 021100
TAFAVP
TAF
KAVP 021140Z 0212/0312 28010KT P6SM OVC025
      TEMPO 0212/0214 2SM -SN OVC015
     FM021400 30015G25KT P6SM BKN025 OVC035
     FM021800 30015G25KT P6SM BKN050
     FM030000 30004KT P6SM SKC=



000
FTUS41 KBGM 021100
TAFSYR
TAF
KSYR 021140Z 0212/0312 28015G25KT 1SM -SN OVC015
     FM022000 28015G20KT P6SM -SHSN OVC035
      TEMPO 0220/0224 3SM -SN
     FM030000 29010KT P6SM -SHSN OVC035
     FM030300 VRB03KT P6SM SKC=



000
FTUS41 KBGM 021100
TAFELM
TAF
KELM 021140Z 0212/0312 29006KT 3SM -SN OVC025
     FM021400 32015G25KT P6SM -SHSN SCT025 BKN035
     FM030000 30010KT P6SM BKN040
     FM030300 VRB03KT P6SM SKC=



000
FTUS41 KBGM 021100
TAFITH
TAF
KITH 021140Z 0212/0312 31011KT P6SM OVC025
     FM021400 30015G25KT P6SM -SHSN BKN025 OVC035
     FM030000 30010KT P6SM BKN040
     FM030300 31005KT P6SM SKC
     FM030900 12003KT P6SM OVC150=



000
FTUS41 KBGM 021100
TAFBGM
TAF
KBGM 021140Z 0212/0312 28007KT 4SM BR SCT009 OVC015
      TEMPO 0212/0213 2SM -SN
     FM021400 30010G20KT P6SM -SHSN BKN025 OVC035
     FM030000 30011KT P6SM BKN040
     FM030300 30004KT P6SM SKC=



000
FTUS41 KBGM 021100
TAFSYR
TAF
KSYR 021140Z 0212/0312 28015G25KT 1SM -SN OVC015
     FM022000 28015G20KT P6SM -SHSN OVC035
      TEMPO 0220/0224 3SM -SN
     FM030000 29010KT P6SM -SHSN OVC035
     FM030300 VRB03KT P6SM SKC=



000
FTUS41 KBGM 021100
TAFELM
TAF
KELM 021140Z 0212/0312 29006KT 3SM -SN OVC025
     FM021400 32015G25KT P6SM -SHSN SCT025 BKN035
     FM030000 30010KT P6SM BKN040
     FM030300 VRB03KT P6SM SKC=



000
FTUS41 KBGM 021100
TAFAVP
TAF
KAVP 021140Z 0212/0312 28010KT P6SM OVC025
      TEMPO 0212/0214 2SM -SN OVC015
     FM021400 30015G25KT P6SM BKN025 OVC035
     FM021800 30015G25KT P6SM BKN050
     FM030000 30004KT P6SM SKC=



000
FTUS41 KBGM 020800 AAA
TAFBGM
TAF AMD
KBGM 020845Z 0209/0306 28007KT 4SM BR SCT009 OVC012
     FM021400 30010G20KT P6SM -SHSN BKN025 OVC035
     FM030000 30011KT P6SM BKN040=



000
FTUS41 KBGM 020800 AAB
TAFSYR
TAF AMD
KSYR 020845Z 0209/0306 27008KT P6SM OVC025
      TEMPO 0209/0212 2SM -SN
     FM021200 28015G25KT 1SM -SHSN OVC015
     FM022000 28015G20KT P6SM -SHSN OVC035=



000
FTUS41 KBGM 020800 AAB
TAFELM
TAF AMD
KELM 020845Z 0209/0306 29006KT 4SM BR OVC015
     FM021400 32015G25KT P6SM -SHSN SCT025 BKN035
     FM030000 30005KT P6SM SCT050=



000
FTUS41 KBGM 020800 AAB
TAFITH
TAF AMD
KITH 020845Z 0209/0306 30008KT 4SM BR OVC007
      TEMPO 0212/0214 OVC012
     FM021400 30015G25KT P6SM -SHSN BKN025 OVC035
     FM030000 30010KT P6SM BKN040=



000
FTUS41 KBGM 020800 AAB
TAFAVP
TAF AMD
KAVP 020845Z 0209/0306 28010KT P6SM OVC012
      TEMPO 0209/0212 4SM BR OVC009
     FM021400 30015G25KT P6SM SCT025 BKN050
     FM030000 30008KT P6SM SCT100=



000
FTUS41 KBGM 020800 AAB
TAFAVP
TAF AMD
KAVP 020845Z 0209/0306 28010KT P6SM OVC012
      TEMPO 0209/0212 4SM BR OVC009
     FM021400 30015G25KT P6SM SCT025 BKN050
     FM030000 30008KT P6SM SCT100=



000
FTUS41 KBGM 020800 AAA
TAFBGM
TAF AMD
KBGM 020845Z 0209/0306 28007KT 4SM BR SCT009 OVC012
     FM021400 30010G20KT P6SM -SHSN BKN025 OVC035
     FM030000 30011KT P6SM BKN040=



000
FTUS41 KBGM 020800 AAB
TAFELM
TAF AMD
KELM 020845Z 0209/0306 29006KT 4SM BR OVC015
     FM021400 32015G25KT P6SM -SHSN SCT025 BKN035
     FM030000 30005KT P6SM SCT050=



000
FTUS41 KBGM 020800 AAB
TAFITH
TAF AMD
KITH 020845Z 0209/0306 30008KT 4SM BR OVC007
      TEMPO 0212/0214 OVC012
     FM021400 30015G25KT P6SM -SHSN BKN025 OVC035
     FM030000 30010KT P6SM BKN040=



000
FTUS41 KBGM 020800 AAB
TAFSYR
TAF AMD
KSYR 020845Z 0209/0306 27008KT P6SM OVC025
      TEMPO 0209/0212 2SM -SN
     FM021200 28015G25KT 1SM -SHSN OVC015
     FM022000 28015G20KT P6SM -SHSN OVC035=



000
FTUS41 KBGM 020800 AAA
TAFAVP
TAF AMD
KAVP 020805Z 0208/0306 28010KT P6SM OVC012
      TEMPO 0208/0212 4SM BR OVC009
     FM021400 30015G25KT P6SM SCT025 BKN050
     FM030000 30008KT P6SM SCT100=



000
FTUS41 KBGM 020800 AAA
TAFAVP
TAF AMD
KAVP 020805Z 0208/0306 28010KT P6SM OVC012
      TEMPO 0208/0212 4SM BR OVC009
     FM021400 30015G25KT P6SM SCT025 BKN050
     FM030000 30008KT P6SM SCT100=



000
FTUS41 KBGM 020800 AAA
TAFBGM
TAF AMD
KBGM 020804Z 0208/0306 28007KT 4SM BR SCT009 OVC012
     FM021400 30010G20KT P6SM -SHSN BKN025 OVC035
     FM030000 30011KT P6SM BKN040=



000
FTUS41 KBGM 020800 AAA
TAFELM
TAF AMD
KELM 020804Z 0208/0306 29006KT 4SM BR OVC015
     FM021400 32015G25KT P6SM -SHSN SCT025 BKN035
     FM030000 30005KT P6SM SCT050=



000
FTUS41 KBGM 020800 AAA
TAFBGM
TAF AMD
KBGM 020804Z 0208/0306 28007KT 4SM BR SCT009 OVC012
     FM021400 30010G20KT P6SM -SHSN BKN025 OVC035
     FM030000 30011KT P6SM BKN040=



000
FTUS41 KBGM 020800 AAA
TAFELM
TAF AMD
KELM 020804Z 0208/0306 29006KT 4SM BR OVC015
     FM021400 32015G25KT P6SM -SHSN SCT025 BKN035
     FM030000 30005KT P6SM SCT050=



000
FTUS41 KBGM 020800 AAA
TAFITH
TAF AMD
KITH 020803Z 0208/0306 30008KT 4SM BR OVC007
      TEMPO 0212/0214 OVC012
     FM021400 30015G25KT P6SM -SHSN BKN025 OVC035
     FM030000 30010KT P6SM BKN040=



000
FTUS41 KBGM 020800 AAA
TAFITH
TAF AMD
KITH 020803Z 0208/0306 30008KT 4SM BR OVC007
      TEMPO 0212/0214 OVC012
     FM021400 30015G25KT P6SM -SHSN BKN025 OVC035
     FM030000 30010KT P6SM BKN040=



000
FTUS41 KBGM 020700 AAA
TAFSYR
TAF AMD
KSYR 020716Z 0207/0306 27008KT P6SM OVC025
      TEMPO 0209/0212 2SM -SN
     FM021200 28015G25KT 1SM -SHSN OVC015
     FM022000 28015G20KT P6SM -SHSN OVC035=



000
FTUS41 KBGM 020500
TAFELM
TAF
KELM 020540Z 0206/0306 29006KT 4SM BR SCT008 OVC035
     FM020900 29006KT P6SM OVC020
     FM021400 32015G25KT P6SM -SHSN SCT025 BKN035
     FM030000 30005KT P6SM SCT050=



000
FTUS41 KBGM 020500
TAFSYR
TAF
KSYR 020540Z 0206/0306 27008KT 2SM -SN OVC025
      TEMPO 0206/0210 3SM -SN OVC035
     FM021000 27008KT 2SM -SN OVC020
      TEMPO 0210/0212 3SM
     FM021200 28015G25KT 1SM -SHSN OVC015
     FM022000 28015G20KT P6SM -SHSN OVC035=



000
FTUS41 KBGM 020500
TAFSYR
TAF
KSYR 020540Z 0206/0306 27008KT 2SM -SN OVC025
      TEMPO 0206/0210 3SM -SN OVC035
     FM021000 27008KT 2SM -SN OVC020
      TEMPO 0210/0212 3SM
     FM021200 28015G25KT 1SM -SHSN OVC015
     FM022000 28015G20KT P6SM -SHSN OVC035=



000
FTUS41 KBGM 020500
TAFBGM
TAF
KBGM 020540Z 0206/0306 28007KT 5SM BR OVC025
     FM020900 28007KT P6SM OVC015
     FM021400 30010G20KT P6SM -SHSN BKN025 OVC035
     FM030000 30011KT P6SM BKN040=



000
FTUS41 KBGM 020500
TAFELM
TAF
KELM 020540Z 0206/0306 29006KT 4SM BR SCT008 OVC035
     FM020900 29006KT P6SM OVC020
     FM021400 32015G25KT P6SM -SHSN SCT025 BKN035
     FM030000 30005KT P6SM SCT050=



000
FTUS41 KBGM 020500
TAFAVP
TAF
KAVP 020540Z 0206/0306 28010KT P6SM OVC025
      TEMPO 0206/0208 5SM -SHSN OVC015
     FM021400 30015G25KT P6SM SCT025 BKN050
     FM030000 30008KT P6SM SCT100=



000
FTUS41 KBGM 020500
TAFAVP
TAF
KAVP 020540Z 0206/0306 28010KT P6SM OVC025
      TEMPO 0206/0208 5SM -SHSN OVC015
     FM021400 30015G25KT P6SM SCT025 BKN050
     FM030000 30008KT P6SM SCT100=



000
FTUS41 KBGM 020500
TAFITH
TAF
KITH 020540Z 0206/0306 30008KT P6SM -SHSN SCT008 OVC015
     FM021400 30015G25KT P6SM -SHSN BKN025 OVC035
     FM030000 30010KT P6SM BKN040=



000
FTUS41 KBGM 020500
TAFITH
TAF
KITH 020540Z 0206/0306 30008KT P6SM -SHSN SCT008 OVC015
     FM021400 30015G25KT P6SM -SHSN BKN025 OVC035
     FM030000 30010KT P6SM BKN040=



000
FTUS41 KBGM 020500
TAFBGM
TAF
KBGM 020540Z 0206/0306 28007KT 5SM BR OVC025
     FM020900 28007KT P6SM OVC015
     FM021400 30010G20KT P6SM -SHSN BKN025 OVC035
     FM030000 30011KT P6SM BKN040=



000
FTUS41 KBGM 020300 AAB
TAFSYR
TAF AMD
KSYR 020347Z 0204/0224 27008KT 3SM -SHSN OVC025
      TEMPO 0205/0209 6SM -SHSN OVC035
     FM021200 28015G25KT 1SM -SHSN OVC015
     FM022000 28015G20KT P6SM -SHSN OVC035=



000
FTUS41 KBGM 020200 AAA
TAFBGM
TAF AMD
KBGM 020251Z 0203/0224 20005KT 3SM -SN OVC025
      TEMPO 0203/0205 2SM -SN OVC015
     FM020500 28007KT P6SM -SHSN SCT008 OVC015
     FM021400 30010G20KT P6SM -SHSN SCT025 BKN035=



000
FTUS41 KBGM 020200 AAA
TAFELM
TAF AMD
KELM 020250Z 0203/0224 VRB03KT 3SM -SN OVC025
     FM020600 29006KT P6SM -SHSN SCT008 OVC015
     FM021400 32015G25KT P6SM -SHSN SCT025 BKN035=



000
FTUS41 KBGM 020200 AAA
TAFITH
TAF AMD
KITH 020206Z 0202/0224 20006KT P6SM OVC040
      TEMPO 0202/0205 4SM -SN OVC025
     FM020500 30008KT P6SM -SHSN SCT008 OVC015
     FM021400 30015G25KT P6SM -SHSN SCT025 BKN035=



000
FTUS41 KBGM 020200 AAA
TAFITH
TAF AMD
KITH 020206Z 0202/0224 20006KT P6SM OVC040
      TEMPO 0202/0205 4SM -SN OVC025
     FM020500 30008KT P6SM -SHSN SCT008 OVC015
     FM021400 30015G25KT P6SM -SHSN SCT025 BKN035=



000
FTUS41 KBGM 020100 AAA
TAFBGM
TAF AMD
KBGM 020129Z 0201/0224 20005KT 1SM -SN OVC015
      TEMPO 0201/0204 3SM -SN OVC025
     FM020400 28007KT P6SM -SHSN SCT008 OVC015
     FM021400 30010G20KT P6SM -SHSN SCT025 BKN035=



000
FTUS41 KBGM 020100 AAA
TAFBGM
TAF AMD
KBGM 020129Z 0201/0224 20005KT 1SM -SN OVC015
      TEMPO 0201/0204 3SM -SN OVC025
     FM020400 28007KT P6SM -SHSN SCT008 OVC015
     FM021400 30010G20KT P6SM -SHSN SCT025 BKN035=



000
FTUS41 KBGM 020100 AAA
TAFSYR
TAF AMD
KSYR 020120Z 0201/0224 VRB04KT 1SM -SN OVC015
      TEMPO 0201/0204 3SM -SN OVC025
     FM020400 27008KT P6SM -SHSN OVC025
     FM021200 28015G25KT 1SM -SHSN OVC015
     FM022000 28015G20KT P6SM -SHSN OVC035=



000
FTUS41 KBGM 012300
TAFBGM
TAF
KBGM 012337Z 0200/0224 20005KT 1SM -SN OVC015
      TEMPO 0204/0206 3SM -SN OVC025
     FM020600 28007KT P6SM -SHSN SCT008 OVC015
     FM021400 30010G20KT P6SM -SHSN SCT025 BKN035=



000
FTUS41 KBGM 012300
TAFSYR
TAF
KSYR 012337Z 0200/0224 VRB04KT 1SM -SN OVC015
      TEMPO 0203/0206 3SM -SN OVC025
     FM020600 27008KT P6SM -SHSN OVC025
     FM021200 28015G25KT 1SM -SHSN OVC015
     FM022000 28015G20KT P6SM -SHSN OVC035=



000
FTUS41 KBGM 012300
TAFAVP
TAF
KAVP 012337Z 0200/0224 24004KT 1SM -SN OVC025
      TEMPO 0200/0204 4SM -SN
     FM020400 28010KT P6SM -SHSN OVC025
     FM021400 30015G25KT P6SM SCT025 BKN050=



000
FTUS41 KBGM 012300
TAFELM
TAF
KELM 012337Z 0200/0224 VRB03KT 1 1/2SM -SN OVC025
      TEMPO 0203/0206 3SM -SN OVC025
     FM020600 29006KT P6SM -SHSN SCT008 OVC015
     FM021400 32015G25KT P6SM -SHSN SCT025 BKN035=



000
FTUS41 KBGM 012300
TAFITH
TAF
KITH 012337Z 0200/0224 20006KT 1 1/2SM -SN OVC015
      TEMPO 0200/0203 4SM -SN OVC025
     FM020300 20006KT 1 1/2SM -SN OVC015
      TEMPO 0203/0205 4SM -SN OVC025
     FM020500 30008KT P6SM -SHSN SCT008 OVC015
     FM021400 30015G25KT P6SM -SHSN SCT025 BKN035=



000
FTUS41 KBGM 012300
TAFELM
TAF
KELM 012337Z 0200/0224 VRB03KT 1 1/2SM -SN OVC025
      TEMPO 0203/0206 3SM -SN OVC025
     FM020600 29006KT P6SM -SHSN SCT008 OVC015
     FM021400 32015G25KT P6SM -SHSN SCT025 BKN035=



000
FTUS41 KBGM 012300
TAFAVP
TAF
KAVP 012337Z 0200/0224 24004KT 1SM -SN OVC025
      TEMPO 0200/0204 4SM -SN
     FM020400 28010KT P6SM -SHSN OVC025
     FM021400 30015G25KT P6SM SCT025 BKN050=



000
FTUS41 KBGM 012300
TAFSYR
TAF
KSYR 012337Z 0200/0224 VRB04KT 1SM -SN OVC015
      TEMPO 0203/0206 3SM -SN OVC025
     FM020600 27008KT P6SM -SHSN OVC025
     FM021200 28015G25KT 1SM -SHSN OVC015
     FM022000 28015G20KT P6SM -SHSN OVC035=



000
FTUS41 KBGM 012300
TAFBGM
TAF
KBGM 012337Z 0200/0224 20005KT 1SM -SN OVC015
      TEMPO 0204/0206 3SM -SN OVC025
     FM020600 28007KT P6SM -SHSN SCT008 OVC015
     FM021400 30010G20KT P6SM -SHSN SCT025 BKN035=



000
FTUS41 KBGM 012300
TAFITH
TAF
KITH 012337Z 0200/0224 20006KT 1 1/2SM -SN OVC015
      TEMPO 0200/0203 4SM -SN OVC025
     FM020300 20006KT 1 1/2SM -SN OVC015
      TEMPO 0203/0205 4SM -SN OVC025
     FM020500 30008KT P6SM -SHSN SCT008 OVC015
     FM021400 30015G25KT P6SM -SHSN SCT025 BKN035=



000
FTUS41 KBGM 012300
TAFBGM
TAF
KBGM 012335Z 0200/0224 20005KT 1SM -SN OVC015
      TEMPO 0204/0206 3SM -SN OVC025
     FM020600 28007KT P6SM -SHSN SCT008 OVC015
     FM021400 30010G20KT P6SM -SHSN SCT025 BKN035=



000
FTUS41 KBGM 012300
TAFSYR
TAF
KSYR 012335Z 0200/0224 VRB04KT 1SM -SN OVC015
      TEMPO 0203/0206 3SM -SN OVC025
     FM020600 27008KT P6SM -SHSN OVC025
     FM021200 28015G25KT 1SM -SHSN OVC015
     FM022000 28015G20KT P6SM -SHSN OVC035=



000
FTUS41 KBGM 012300
TAFITH
TAF
KITH 012335Z 0200/0224 20006KT 1 1/2SM -SN OVC015
      TEMPO 0200/0203 4SM -SN OVC025
     FM020300 20006KT 1 1/2SM -SN OVC015
      TEMPO 0203/0205 4SM -SN OVC025
     FM020500 30008KT P6SM -SHSN SCT008 OVC015
     FM021400 30015G25KT P6SM -SHSN SCT025 BKN035=



000
FTUS41 KBGM 012300
TAFAVP
TAF
KAVP 012335Z 0200/0224 24004KT 1SM -SN OVC025
      TEMPO 0200/0204 4SM -SN
     FM020400 28010KT P6SM -SHSN OVC025
     FM021400 30015G25KT P6SM SCT025 BKN050=



000
FTUS41 KBGM 012300
TAFELM
TAF
KELM 012335Z 0200/0224 VRB03KT 1 1/2SM -SN OVC025
      TEMPO 0203/0206 3SM -SN OVC025
     FM020600 29006KT P6SM -SHSN SCT008 OVC015
     FM021400 32015G25KT P6SM -SHSN SCT025 BKN035=



000
FTUS41 KBGM 012300
TAFBGM
TAF
KBGM 012335Z 0200/0224 20005KT 1SM -SN OVC015
      TEMPO 0204/0206 3SM -SN OVC025
     FM020600 28007KT P6SM -SHSN SCT008 OVC015
     FM021400 30010G20KT P6SM -SHSN SCT025 BKN035=



000
FTUS41 KBGM 012300
TAFAVP
TAF
KAVP 012335Z 0200/0224 24004KT 1SM -SN OVC025
      TEMPO 0200/0204 4SM -SN
     FM020400 28010KT P6SM -SHSN OVC025
     FM021400 30015G25KT P6SM SCT025 BKN050=



000
FTUS41 KBGM 012300
TAFELM
TAF
KELM 012335Z 0200/0224 VRB03KT 1 1/2SM -SN OVC025
      TEMPO 0203/0206 3SM -SN OVC025
     FM020600 29006KT P6SM -SHSN SCT008 OVC015
     FM021400 32015G25KT P6SM -SHSN SCT025 BKN035=



000
FTUS41 KBGM 012300
TAFITH
TAF
KITH 012335Z 0200/0224 20006KT 1 1/2SM -SN OVC015
      TEMPO 0200/0203 4SM -SN OVC025
     FM020300 20006KT 1 1/2SM -SN OVC015
      TEMPO 0203/0205 4SM -SN OVC025
     FM020500 30008KT P6SM -SHSN SCT008 OVC015
     FM021400 30015G25KT P6SM -SHSN SCT025 BKN035=



000
FTUS41 KBGM 012300
TAFSYR
TAF
KSYR 012335Z 0200/0224 VRB04KT 1SM -SN OVC015
      TEMPO 0203/0206 3SM -SN OVC025
     FM020600 27008KT P6SM -SHSN OVC025
     FM021200 28015G25KT 1SM -SHSN OVC015
     FM022000 28015G20KT P6SM -SHSN OVC035=



000
FTUS41 KBGM 012300
TAFELM
TAF
KELM 012320Z 0200/0224 VRB03KT 1 1/2SM -SN OVC025
      TEMPO 0200/0203 3/4SM -SN OVC008
     FM020600 29006KT P6SM -SHSN SCT008 OVC015
     FM021400 32015G25KT P6SM -SHSN SCT025 BKN035=



000
FTUS41 KBGM 012300
TAFSYR
TAF
KSYR 012320Z 0200/0224 VRB04KT 1SM -SN OVC025
      TEMPO 0200/0203 3/4SM -SN OVC015
     FM020600 27008KT P6SM -SHSN OVC025
     FM021200 28015G25KT 1SM -SHSN OVC015
     FM022000 28015G20KT P6SM -SHSN OVC035=



000
FTUS41 KBGM 012300
TAFITH
TAF
KITH 012320Z 0200/0224 20006KT 1 1/2SM -SN OVC025
      TEMPO 0200/0203 3/4SM -SN OVC008
     FM020600 30008KT P6SM -SHSN SCT008 OVC015
     FM021400 30015G25KT P6SM -SHSN SCT025 BKN035=



000
FTUS41 KBGM 012300
TAFAVP
TAF
KAVP 012320Z 0200/0224 24004KT 1SM -SN OVC025
      TEMPO 0200/0203 1/2SM SN OVC015
     FM020600 28010KT P6SM -SHSN OVC025
     FM021400 30015G25KT P6SM SCT025 BKN050=



000
FTUS41 KBGM 012300
TAFBGM
TAF
KBGM 012320Z 0200/0224 20005KT 1SM -SN OVC015
      TEMPO 0200/0203 1/2SM SN VV005
     FM020600 28007KT P6SM -SHSN SCT008 OVC015
     FM021400 30010G20KT P6SM -SHSN SCT025 BKN035=



000
FTUS41 KBGM 012300
TAFITH
TAF
KITH 012320Z 0200/0224 20006KT 1 1/2SM -SN OVC025
      TEMPO 0200/0203 3/4SM -SN OVC008
     FM020600 30008KT P6SM -SHSN SCT008 OVC015
     FM021400 30015G25KT P6SM -SHSN SCT025 BKN035=



000
FTUS41 KBGM 012300
TAFSYR
TAF
KSYR 012320Z 0200/0224 VRB04KT 1SM -SN OVC025
      TEMPO 0200/0203 3/4SM -SN OVC015
     FM020600 27008KT P6SM -SHSN OVC025
     FM021200 28015G25KT 1SM -SHSN OVC015
     FM022000 28015G20KT P6SM -SHSN OVC035=



000
FTUS41 KBGM 012300
TAFBGM
TAF
KBGM 012320Z 0200/0224 20005KT 1SM -SN OVC015
      TEMPO 0200/0203 1/2SM SN VV005
     FM020600 28007KT P6SM -SHSN SCT008 OVC015
     FM021400 30010G20KT P6SM -SHSN SCT025 BKN035=



000
FTUS41 KBGM 012300
TAFAVP
TAF
KAVP 012320Z 0200/0224 24004KT 1SM -SN OVC025
      TEMPO 0200/0203 1/2SM SN OVC015
     FM020600 28010KT P6SM -SHSN OVC025
     FM021400 30015G25KT P6SM SCT025 BKN050=



000
FTUS41 KBGM 012300
TAFELM
TAF
KELM 012320Z 0200/0224 VRB03KT 1 1/2SM -SN OVC025
      TEMPO 0200/0203 3/4SM -SN OVC008
     FM020600 29006KT P6SM -SHSN SCT008 OVC015
     FM021400 32015G25KT P6SM -SHSN SCT025 BKN035=



000
FTUS41 KBGM 012000 AAA
TAFELM
TAF AMD
KELM 012052Z 0121/0218 21005KT 3SM -SN OVC025
      TEMPO 0121/0123 1 1/2SM -SN OVC015
     FM012300 VRB03KT 1 1/2SM -SN OVC015
      TEMPO 0123/0203 3/4SM -SN
     FM020300 30005KT P6SM -SHSN OVC025
     FM021300 30015G25KT P6SM -SHSN SCT025 BKN040=



000
FTUS41 KBGM 012000 AAA
TAFAVP
TAF AMD
KAVP 012052Z 0121/0218 21005KT 2SM -SN OVC025
      TEMPO 0121/0123 1SM -SN OVC015
     FM012300 23005KT 1SM -SN OVC015
      TEMPO 0123/0203 1/2SM SN OVC008
     FM020600 31005KT P6SM -SHSN OVC025
     FM021400 32015G25KT P6SM SCT025 BKN045=



000
FTUS41 KBGM 012000 AAA
TAFITH
TAF AMD
KITH 012052Z 0121/0218 17012KT 2SM -SN OVC025
      TEMPO 0121/0123 1SM -SN OVC015
     FM012300 18008KT 1SM -SN OVC015
      TEMPO 0123/0203 1/2SM SN OVC008
     FM020400 30008KT P6SM -SHSN SCT008 OVC015
     FM021300 30015G25KT P6SM -SHSN SCT025 BKN035=



000
FTUS41 KBGM 012000 AAA
TAFSYR
TAF AMD
KSYR 012052Z 0121/0218 15008KT 3SM -SN OVC025
      TEMPO 0121/0123 1 1/2SM -SN OVC015
     FM012300 VRB05KT 1 1/2SM -SN OVC015
      TEMPO 0123/0203 3/4SM -SN OVC008
     FM020400 28010KT P6SM -SHSN OVC025
     FM021200 29015G25KT 1SM -SHSN BLSN OVC015=



000
FTUS41 KBGM 012000 AAA
TAFBGM
TAF AMD
KBGM 012052Z 0121/0218 19008KT 1 1/2SM -SN SCT008 OVC015
      TEMPO 0121/0122 3/4SM -SN OVC008
     FM012300 20005KT 1SM -SN OVC008
      TEMPO 0123/0203 1/2SM SN VV005
     FM020500 28005KT P6SM -SHSN SCT008 OVC015
     FM021300 30015G25KT P6SM -SHSN SCT025 BKN035=



000
FTUS41 KBGM 011700
TAFBGM
TAF
KBGM 011733Z 0118/0218 19008KT 5SM -SN SCT025 OVC035
      TEMPO 0118/0122 1 1/2SM -SN OVC025
     FM012200 20005KT 3/4SM -SN OVC008
     FM020500 28005KT P6SM -SHSN SCT008 OVC015
     FM021300 30015G25KT P6SM -SHSN SCT025 BKN035=



000
FTUS41 KBGM 011700
TAFELM
TAF
KELM 011733Z 0118/0218 VRB03KT P6SM -SN SCT025 OVC040
      TEMPO 0118/0122 3SM -SN OVC025
     FM012200 VRB03KT 1SM -SN OVC015
     FM020300 30005KT P6SM -SHSN OVC025
     FM021300 30015G25KT P6SM -SHSN SCT025 BKN040=



000
FTUS41 KBGM 011700
TAFITH
TAF
KITH 011733Z 0118/0218 17012KT P6SM -SN SCT025 OVC035
      TEMPO 0118/0122 3SM -SN OVC025
     FM012200 18008KT 1SM -SN OVC012
     FM020400 30008KT P6SM -SHSN SCT008 OVC015
     FM021300 30015G25KT P6SM -SHSN SCT025 BKN035=



000
FTUS41 KBGM 011700
TAFSYR
TAF
KSYR 011733Z 0118/0218 17010KT P6SM -SN SCT025 OVC035
      TEMPO 0118/0122 3SM -SN OVC025
     FM012200 VRB05KT 1SM -SN OVC015
     FM020400 28010KT P6SM -SHSN OVC025
     FM021200 29015G25KT 1SM -SHSN BLSN OVC015=



000
FTUS41 KBGM 011700
TAFAVP
TAF
KAVP 011733Z 0118/0218 21005KT 4SM -SN SCT025 OVC040
      TEMPO 0118/0122 1 1/2SM -SN OVC025
     FM012200 23005KT 3/4SM -SN OVC012
     FM020600 31005KT P6SM -SHSN OVC025
     FM021400 32015G25KT P6SM SCT025 BKN045=



000
FTUS41 KBGM 011700
TAFAVP
TAF
KAVP 011733Z 0118/0218 21005KT 4SM -SN SCT025 OVC040
      TEMPO 0118/0122 1 1/2SM -SN OVC025
     FM012200 23005KT 3/4SM -SN OVC012
     FM020600 31005KT P6SM -SHSN OVC025
     FM021400 32015G25KT P6SM SCT025 BKN045=



000
FTUS41 KBGM 011700
TAFSYR
TAF
KSYR 011733Z 0118/0218 17010KT P6SM -SN SCT025 OVC035
      TEMPO 0118/0122 3SM -SN OVC025
     FM012200 VRB05KT 1SM -SN OVC015
     FM020400 28010KT P6SM -SHSN OVC025
     FM021200 29015G25KT 1SM -SHSN BLSN OVC015=



000
FTUS41 KBGM 011700
TAFITH
TAF
KITH 011733Z 0118/0218 17012KT P6SM -SN SCT025 OVC035
      TEMPO 0118/0122 3SM -SN OVC025
     FM012200 18008KT 1SM -SN OVC012
     FM020400 30008KT P6SM -SHSN SCT008 OVC015
     FM021300 30015G25KT P6SM -SHSN SCT025 BKN035=



000
FTUS41 KBGM 011700
TAFELM
TAF
KELM 011733Z 0118/0218 VRB03KT P6SM -SN SCT025 OVC040
      TEMPO 0118/0122 3SM -SN OVC025
     FM012200 VRB03KT 1SM -SN OVC015
     FM020300 30005KT P6SM -SHSN OVC025
     FM021300 30015G25KT P6SM -SHSN SCT025 BKN040=



000
FTUS41 KBGM 011700
TAFBGM
TAF
KBGM 011733Z 0118/0218 19008KT 5SM -SN SCT025 OVC035
      TEMPO 0118/0122 1 1/2SM -SN OVC025
     FM012200 20005KT 3/4SM -SN OVC008
     FM020500 28005KT P6SM -SHSN SCT008 OVC015
     FM021300 30015G25KT P6SM -SHSN SCT025 BKN035=



000
FTUS41 KBGM 011600 AAA
TAFBGM
TAF AMD
KBGM 011623Z 0116/0212 19008KT 3SM -SN SCT025 OVC035
      TEMPO 0116/0120 1 1/2SM -SN OVC025
     FM012300 20005KT 3/4SM -SN OVC008
     FM020500 28005KT P6SM -SHSN SCT008 OVC012=



000
FTUS41 KBGM 011600 AAA
TAFSYR
TAF AMD
KSYR 011623Z 0116/0212 16008KT 3SM -SN OVC025
      TEMPO 0116/0120 P6SM -SN SCT025 OVC040
     FM012300 18008KT 1 1/2SM -SN OVC015
     FM020600 27008KT P6SM -SHSN OVC025=



000
FTUS41 KBGM 011600 AAA
TAFITH
TAF AMD
KITH 011623Z 0116/0212 17012KT P6SM -SN SCT025 OVC035
      TEMPO 0116/0120 3SM -SN OVC025
     FM012300 18008KT 1SM -SN OVC012
     FM020600 31005KT P6SM -SHSN SCT008 OVC015=



000
FTUS41 KBGM 011600 AAA
TAFAVP
TAF AMD
KAVP 011623Z 0116/0212 VRB03KT P6SM -SN SCT025 OVC040
      TEMPO 0116/0120 3SM -SN OVC025
     FM012300 20005KT 3/4SM -SN OVC012
     FM020500 VRB03KT P6SM -SHSN OVC015
     FM020800 28010KT P6SM OVC025=



000
FTUS41 KBGM 011600 AAA
TAFELM
TAF AMD
KELM 011623Z 0116/0212 VRB03KT P6SM -SN SCT025 OVC040
      TEMPO 0116/0120 3SM -SN OVC025
     FM012200 VRB06KT 1 1/2SM -SN OVC015
     FM020500 30005KT P6SM -SHSN OVC025=



000
FTUS41 KBGM 011100
TAFBGM
TAF
KBGM 011127Z 0112/0212 17008KT 1 1/2SM -SN OVC015
     FM011500 19008KT 1 1/2SM -SN BR OVC007
     FM012100 20006KT 3/4SM -SN OVC007
     FM020500 24006KT P6SM -SHSN OVC009
     FM020600 30010KT P6SM OVC015=



000
FTUS41 KBGM 011100
TAFAVP
TAF
KAVP 011127Z 0112/0212 17003KT 1 1/2SM -SN OVC020
     FM011800 20005KT 3/4SM -SN BR OVC012
     FM020500 24003KT P6SM -SHSN OVC020
     FM020800 28010KT P6SM OVC025=



000
FTUS41 KBGM 011100
TAFELM
TAF
KELM 011127Z 0112/0212 VRB03KT 1SM -SN OVC015
      TEMPO 0114/0118 3SM -SN BR OVC025
     FM011800 VRB06KT 1 1/2SM -SN BR OVC015
      TEMPO 0122/0202 1SM -SN OVC009
     FM020400 30005KT P6SM -SHSN OVC025=



000
FTUS41 KBGM 011100
TAFITH
TAF
KITH 011127Z 0112/0212 16009KT 1 1/2SM -SN OVC020
      TEMPO 0114/0118 3SM -SN BR OVC025
     FM011800 VRB06KT 1 1/2SM -SN BR OVC009
     FM020400 24004KT P6SM -SHSN OVC009
     FM020600 31005KT P6SM OVC009=



000
FTUS41 KBGM 011100
TAFSYR
TAF
KSYR 011127Z 0112/0212 11005KT P6SM OVC040
      TEMPO 0112/0114 1 1/2SM -SN BR OVC025
     FM011400 11005KT 1 1/2SM -SN OVC015
      TEMPO 0114/0118 3SM -SN OVC020
     FM011800 18009KT 1 1/2SM -SN BR OVC015
     FM020600 27007KT P6SM -SHSN OVC020=



000
FTUS41 KBGM 010900 AAA
TAFBGM
TAF AMD
KBGM 010901Z 0109/0206 15007KT P6SM OVC070
     FM011100 17008KT P6SM OVC025
      TEMPO 0111/0115 2SM -SN BR OVC015
     FM011500 19008KT 1SM -SN BR OVC007=



000
FTUS41 KBGM 010900 AAA
TAFITH
TAF AMD
KITH 010901Z 0109/0206 12007KT P6SM OVC080
     FM011100 16009KT P6SM OVC035
      TEMPO 0111/0115 2SM -SN BR OVC025
     FM011500 17008KT 1SM -SN BR OVC009=



000
FTUS41 KBGM 010900 AAA
TAFSYR
TAF AMD
KSYR 010901Z 0109/0206 VRB04KT P6SM SCT180
     FM011000 11005KT P6SM OVC100
     FM011300 15007KT P6SM OVC040
      TEMPO 0113/0117 2SM -SN BR OVC025
     FM011700 18009KT 2SM -SN BR OVC015=



000
FTUS41 KBGM 010900 AAA
TAFAVP
TAF AMD
KAVP 010901Z 0109/0206 12002KT P6SM OVC070
     FM011200 17003KT P6SM OVC035
      TEMPO 0113/0117 2SM -SN BR OVC025
     FM011700 20005KT 2SM -SN BR OVC015
     FM011900 23004KT 1SM -SN OVC012=



000
FTUS41 KBGM 010900 AAA
TAFELM
TAF AMD
KELM 010901Z 0109/0206 VRB02KT P6SM OVC100
     FM011000 VRB03KT P6SM OVC035
      TEMPO 0110/0114 1 1/2SM -SN BR OVC025
     FM011400 VRB06KT 2SM -SN BR OVC015
      TEMPO 0122/0202 1SM -SN OVC009=



000
FTUS41 KBGM 010900 AAA
TAFBGM
TAF AMD
KBGM 010901Z 0109/0206 15007KT P6SM OVC070
     FM011100 17008KT P6SM OVC025
      TEMPO 0111/0115 2SM -SN BR OVC015
     FM011500 19008KT 1SM -SN BR OVC007=



000
FTUS41 KBGM 010900 AAA
TAFELM
TAF AMD
KELM 010901Z 0109/0206 VRB02KT P6SM OVC100
     FM011000 VRB03KT P6SM OVC035
      TEMPO 0110/0114 1 1/2SM -SN BR OVC025
     FM011400 VRB06KT 2SM -SN BR OVC015
      TEMPO 0122/0202 1SM -SN OVC009=



000
FTUS41 KBGM 010900 AAA
TAFITH
TAF AMD
KITH 010901Z 0109/0206 12007KT P6SM OVC080
     FM011100 16009KT P6SM OVC035
      TEMPO 0111/0115 2SM -SN BR OVC025
     FM011500 17008KT 1SM -SN BR OVC009=



000
FTUS41 KBGM 010900 AAA
TAFAVP
TAF AMD
KAVP 010901Z 0109/0206 12002KT P6SM OVC070
     FM011200 17003KT P6SM OVC035
      TEMPO 0113/0117 2SM -SN BR OVC025
     FM011700 20005KT 2SM -SN BR OVC015
     FM011900 23004KT 1SM -SN OVC012=



000
FTUS41 KBGM 010900 AAA
TAFSYR
TAF AMD
KSYR 010901Z 0109/0206 VRB04KT P6SM SCT180
     FM011000 11005KT P6SM OVC100
     FM011300 15007KT P6SM OVC040
      TEMPO 0113/0117 2SM -SN BR OVC025
     FM011700 18009KT 2SM -SN BR OVC015=



000
FTUS41 KBGM 010500
TAFSYR
TAF
KSYR 010538Z 0106/0206 VRB04KT P6SM SCT180
     FM011000 11005KT P6SM OVC100
     FM011300 15007KT P6SM OVC040
      TEMPO 0113/0117 2SM -SN BR OVC025
     FM011700 18009KT 2SM -SN BR OVC015=



000
FTUS41 KBGM 010500
TAFELM
TAF
KELM 010538Z 0106/0206 VRB02KT P6SM SCT180
     FM010700 VRB02KT P6SM OVC100
     FM011000 VRB03KT P6SM OVC035
      TEMPO 0110/0114 1 1/2SM -SN BR OVC025
     FM011400 VRB06KT 2SM -SN BR OVC015
      TEMPO 0122/0202 1SM -SN OVC009=



000
FTUS41 KBGM 010500
TAFBGM
TAF
KBGM 010538Z 0106/0206 VRB04KT P6SM FEW180
     FM010800 15007KT P6SM OVC070
     FM011100 17008KT P6SM OVC025
      TEMPO 0111/0115 2SM -SN BR OVC015
     FM011500 19008KT 1SM -SN BR OVC007=



000
FTUS41 KBGM 010500
TAFITH
TAF
KITH 010538Z 0106/0206 VRB03KT P6SM SCT180
     FM010800 12007KT P6SM OVC080
     FM011100 16009KT P6SM OVC035
      TEMPO 0111/0115 2SM -SN BR OVC025
     FM011500 17008KT 1SM -SN BR OVC009=



000
FTUS41 KBGM 010500
TAFAVP
TAF
KAVP 010538Z 0106/0206 10002KT P6SM FEW180
     FM010800 12002KT P6SM OVC070
     FM011200 17003KT P6SM OVC035
      TEMPO 0113/0117 2SM -SN BR OVC025
     FM011700 20005KT 2SM -SN BR OVC015
     FM011900 23004KT 1SM -SN OVC012=



000
FTUS41 KBGM 010500
TAFSYR
TAF
KSYR 010538Z 0106/0206 VRB04KT P6SM SCT180
     FM011000 11005KT P6SM OVC100
     FM011300 15007KT P6SM OVC040
      TEMPO 0113/0117 2SM -SN BR OVC025
     FM011700 18009KT 2SM -SN BR OVC015=



000
FTUS41 KBGM 010500
TAFAVP
TAF
KAVP 010538Z 0106/0206 10002KT P6SM FEW180
     FM010800 12002KT P6SM OVC070
     FM011200 17003KT P6SM OVC035
      TEMPO 0113/0117 2SM -SN BR OVC025
     FM011700 20005KT 2SM -SN BR OVC015
     FM011900 23004KT 1SM -SN OVC012=



000
FTUS41 KBGM 010500
TAFELM
TAF
KELM 010538Z 0106/0206 VRB02KT P6SM SCT180
     FM010700 VRB02KT P6SM OVC100
     FM011000 VRB03KT P6SM OVC035
      TEMPO 0110/0114 1 1/2SM -SN BR OVC025
     FM011400 VRB06KT 2SM -SN BR OVC015
      TEMPO 0122/0202 1SM -SN OVC009=



000
FTUS41 KBGM 010500
TAFBGM
TAF
KBGM 010538Z 0106/0206 VRB04KT P6SM FEW180
     FM010800 15007KT P6SM OVC070
     FM011100 17008KT P6SM OVC025
      TEMPO 0111/0115 2SM -SN BR OVC015
     FM011500 19008KT 1SM -SN BR OVC007=



000
FTUS41 KBGM 010500
TAFITH
TAF
KITH 010538Z 0106/0206 VRB03KT P6SM SCT180
     FM010800 12007KT P6SM OVC080
     FM011100 16009KT P6SM OVC035
      TEMPO 0111/0115 2SM -SN BR OVC025
     FM011500 17008KT 1SM -SN BR OVC009=



000
FTUS41 KBGM 282300
TAFITH
TAF
KITH 282320Z 0100/0124 VRB03KT P6SM SCT180
     FM010800 12007KT P6SM OVC080
     FM011200 16009KT P6SM OVC035
      TEMPO 0112/0116 2SM -SN BR OVC025
     FM011600 17008KT 1SM -SN BR OVC009=



000
FTUS41 KBGM 282300
TAFSYR
TAF
KSYR 282320Z 0100/0124 VRB04KT P6SM SCT180
     FM011000 11005KT P6SM OVC100
     FM011300 15007KT P6SM OVC040
      TEMPO 0113/0117 2SM -SN BR OVC025
     FM011700 18009KT 2SM -SN BR OVC015=



000
FTUS41 KBGM 282300
TAFELM
TAF
KELM 282320Z 0100/0124 VRB02KT P6SM SCT180
     FM010700 VRB02KT P6SM OVC100
     FM011100 VRB03KT P6SM OVC035
      TEMPO 0111/0115 2SM -SN BR OVC025
     FM011500 VRB06KT 2SM -SN BR OVC015=



000
FTUS41 KBGM 282300
TAFAVP
TAF
KAVP 282320Z 0100/0124 10002KT P6SM FEW180
     FM010800 12002KT P6SM OVC070
     FM011200 17003KT P6SM OVC035
      TEMPO 0112/0116 2SM -SN BR OVC025
     FM011600 20005KT 2SM -SN BR OVC015=



000
FTUS41 KBGM 282300
TAFAVP
TAF
KAVP 282320Z 0100/0124 10002KT P6SM FEW180
     FM010800 12002KT P6SM OVC070
     FM011200 17003KT P6SM OVC035
      TEMPO 0112/0116 2SM -SN BR OVC025
     FM011600 20005KT 2SM -SN BR OVC015=



000
FTUS41 KBGM 282300
TAFELM
TAF
KELM 282320Z 0100/0124 VRB02KT P6SM SCT180
     FM010700 VRB02KT P6SM OVC100
     FM011100 VRB03KT P6SM OVC035
      TEMPO 0111/0115 2SM -SN BR OVC025
     FM011500 VRB06KT 2SM -SN BR OVC015=



000
FTUS41 KBGM 282300
TAFSYR
TAF
KSYR 282320Z 0100/0124 VRB04KT P6SM SCT180
     FM011000 11005KT P6SM OVC100
     FM011300 15007KT P6SM OVC040
      TEMPO 0113/0117 2SM -SN BR OVC025
     FM011700 18009KT 2SM -SN BR OVC015=



000
FTUS41 KBGM 282300
TAFITH
TAF
KITH 282320Z 0100/0124 VRB03KT P6SM SCT180
     FM010800 12007KT P6SM OVC080
     FM011200 16009KT P6SM OVC035
      TEMPO 0112/0116 2SM -SN BR OVC025
     FM011600 17008KT 1SM -SN BR OVC009=



000
FTUS41 KBGM 282300
TAFBGM
TAF
KBGM 282320Z 0100/0124 VRB04KT P6SM FEW180
     FM010800 15007KT P6SM OVC070
     FM011200 17008KT P6SM OVC025
      TEMPO 0112/0116 2SM -SN BR OVC015
     FM011600 19008KT 1SM -SN BR OVC007=



000
FTUS41 KBGM 282300
TAFBGM
TAF
KBGM 282320Z 0100/0124 VRB04KT P6SM FEW180
     FM010800 15007KT P6SM OVC070
     FM011200 17008KT P6SM OVC025
      TEMPO 0112/0116 2SM -SN BR OVC015
     FM011600 19008KT 1SM -SN BR OVC007=



000
FTUS41 KBGM 281700
TAFBGM
TAF
KBGM 281733Z 2818/0118 VRB06KT P6SM SCT250
     FM010700 14005KT P6SM OVC100
     FM011000 16007KT P6SM OVC040
      TEMPO 0112/0116 2SM -SN BR OVC025
     FM011600 18007KT 2SM -SN OVC010=



000
FTUS41 KBGM 281700
TAFAVP
TAF
KAVP 281733Z 2818/0118 VRB06KT P6SM SCT250
     FM010500 VRB03KT P6SM OVC100
     FM010900 VRB03KT P6SM OVC040
      TEMPO 0112/0116 2SM -SN BR OVC025
     FM011600 VRB06KT 2SM -SN OVC015=



000
FTUS41 KBGM 281700
TAFELM
TAF
KELM 281733Z 2818/0118 VRB03KT P6SM SCT250
     FM010700 VRB03KT P6SM OVC100
     FM010900 VRB03KT P6SM OVC040
      TEMPO 0111/0115 2SM -SN BR OVC025
     FM011500 20006KT 2SM -SN OVC015=



000
FTUS41 KBGM 281700
TAFITH
TAF
KITH 281733Z 2818/0118 VRB05KT P6SM SCT250
     FM010800 12007KT P6SM OVC100
     FM011000 16009KT P6SM OVC040
      TEMPO 0112/0116 2SM -SN BR OVC025
     FM011600 17009KT 2SM -SN BR OVC010=



000
FTUS41 KBGM 281700
TAFSYR
TAF
KSYR 281733Z 2818/0118 VRB06KT P6SM SCT250
     FM011000 14006KT P6SM OVC100
     FM011300 16008KT P6SM OVC040
      TEMPO 0113/0117 2SM -SN BR OVC025
     FM011700 18009KT 2SM -SN BR OVC015=



000
FTUS41 KBGM 281700
TAFITH
TAF
KITH 281733Z 2818/0118 VRB05KT P6SM SCT250
     FM010800 12007KT P6SM OVC100
     FM011000 16009KT P6SM OVC040
      TEMPO 0112/0116 2SM -SN BR OVC025
     FM011600 17009KT 2SM -SN BR OVC010=



000
FTUS41 KBGM 281700
TAFBGM
TAF
KBGM 281733Z 2818/0118 VRB06KT P6SM SCT250
     FM010700 14005KT P6SM OVC100
     FM011000 16007KT P6SM OVC040
      TEMPO 0112/0116 2SM -SN BR OVC025
     FM011600 18007KT 2SM -SN OVC010=



000
FTUS41 KBGM 281700
TAFAVP
TAF
KAVP 281733Z 2818/0118 VRB06KT P6SM SCT250
     FM010500 VRB03KT P6SM OVC100
     FM010900 VRB03KT P6SM OVC040
      TEMPO 0112/0116 2SM -SN BR OVC025
     FM011600 VRB06KT 2SM -SN OVC015=



000
FTUS41 KBGM 281700
TAFSYR
TAF
KSYR 281733Z 2818/0118 VRB06KT P6SM SCT250
     FM011000 14006KT P6SM OVC100
     FM011300 16008KT P6SM OVC040
      TEMPO 0113/0117 2SM -SN BR OVC025
     FM011700 18009KT 2SM -SN BR OVC015=



000
FTUS41 KBGM 281700
TAFELM
TAF
KELM 281733Z 2818/0118 VRB03KT P6SM SCT250
     FM010700 VRB03KT P6SM OVC100
     FM010900 VRB03KT P6SM OVC040
      TEMPO 0111/0115 2SM -SN BR OVC025
     FM011500 20006KT 2SM -SN OVC015=



000
FTUS41 KBGM 281300 AAA
TAFSYR
TAF AMD
KSYR 281348Z 2814/0112 24006KT P6SM SCT035
     FM010000 VRB03KT P6SM SKC=



000
FTUS41 KBGM 281300 AAA
TAFSYR
TAF AMD
KSYR 281348Z 2814/0112 24006KT P6SM SCT035
     FM010000 VRB03KT P6SM SKC=



000
FTUS41 KBGM 281300 AAA
TAFITH
TAF AMD
KITH 281306Z 2813/0112 24006KT P6SM SCT035
     FM010000 VRB03KT P6SM SKC
     FM010700 12005KT P6SM OVC100=



000
FTUS41 KBGM 281300 AAA
TAFITH
TAF AMD
KITH 281306Z 2813/0112 24006KT P6SM SCT035
     FM010000 VRB03KT P6SM SKC
     FM010700 12005KT P6SM OVC100=



000
FTUS41 KBGM 281100
TAFBGM
TAF
KBGM 281132Z 2812/0112 26004KT P6SM SKC
     FM010000 VRB03KT P6SM SKC
     FM010900 14005KT P6SM OVC100
     FM011000 14007KT 3SM -SN OVC025=



000
FTUS41 KBGM 281100
TAFITH
TAF
KITH 281132Z 2812/0112 VRB02KT P6SM BKN025
     FM281500 24006KT P6SM FEW035
     FM010000 VRB03KT P6SM SKC
     FM010700 12005KT P6SM OVC100=



000
FTUS41 KBGM 281100
TAFAVP
TAF
KAVP 281132Z 2812/0112 VRB03KT P6SM SKC
     FM281600 31005KT P6SM FEW150
     FM010600 VRB03KT P6SM OVC100
     FM010900 VRB03KT 3SM -SN OVC025=



000
FTUS41 KBGM 281100
TAFELM
TAF
KELM 281132Z 2812/0112 VRB03KT P6SM SKC
     FM010600 VRB03KT P6SM OVC100
     FM010900 VRB03KT 3SM -SN OVC025=



000
FTUS41 KBGM 281100
TAFSYR
TAF
KSYR 281132Z 2812/0112 00000KT P6SM -SN BKN025
     FM281400 24006KT P6SM SCT035
     FM010000 VRB03KT P6SM SKC=



000
FTUS41 KBGM 280800 AAA
TAFITH
TAF AMD
KITH 280834Z 2809/0106 VRB02KT P6SM SKC
     FM281500 24006KT P6SM FEW035=



000
FTUS41 KBGM 280800 AAA
TAFBGM
TAF AMD
KBGM 280834Z 2809/0106 26004KT P6SM SKC=



000
FTUS41 KBGM 280800 AAA
TAFAVP
TAF AMD
KAVP 280834Z 2809/0106 VRB03KT P6SM SKC
     FM281600 31005KT P6SM FEW150=



000
FTUS41 KBGM 280800 AAA
TAFELM
TAF AMD
KELM 280834Z 2809/0106 VRB03KT P6SM SKC=



000
FTUS41 KBGM 280800 AAA
TAFSYR
TAF AMD
KSYR 280834Z 2809/0106 26006KT P6SM SCT035=



000
FTUS41 KBGM 280500
TAFBGM
TAF
KBGM 280531Z 2806/0106 26004KT P6SM SKC=



000
FTUS41 KBGM 280500
TAFELM
TAF
KELM 280531Z 2806/0106 VRB03KT P6SM SKC=



000
FTUS41 KBGM 280500
TAFAVP
TAF
KAVP 280531Z 2806/0106 VRB03KT P6SM SKC
     FM281600 31005KT P6SM FEW150=



000
FTUS41 KBGM 280500
TAFSYR
TAF
KSYR 280531Z 2806/0106 26006KT P6SM SCT035=



000
FTUS41 KBGM 280500
TAFITH
TAF
KITH 280531Z 2806/0106 VRB02KT P6SM SKC
     FM281500 24006KT P6SM FEW035=



    US Dept of Commerce
    National Oceanic and Atmospheric Administration
    National Weather Service
    1325 East West Highway
    Silver Spring, MD 20910
    Page Author: NWS Internet Services Team
Disclaimer
Information Quality
Credits
Glossary
Privacy Policy
Freedom of Information Act (FOIA)
About Us
Career Opportunities